createdAt,value
2022-08-16T00:00:24.341Z,9.00
2022-08-16T00:03:13.307Z,6.65
2022-08-16T00:06:01.569Z,7.93
2022-08-16T00:08:52.711Z,9.65
2022-08-16T00:11:42.162Z,8.20
2022-08-16T00:14:33.810Z,7.20
2022-08-16T00:17:26.746Z,8.23
2022-08-16T00:20:17.253Z,8.02
2022-08-16T00:23:10.937Z,8.10
2022-08-16T00:26:36.516Z,8.77
2022-08-16T00:29:11.825Z,10.40
2022-08-16T00:32:05.710Z,7.85
2022-08-16T00:34:55.884Z,7.65
2022-08-16T00:37:56.645Z,8.82
2022-08-16T00:40:50.810Z,7.70
2022-08-16T00:43:44.468Z,8.45
2022-08-16T00:46:36.490Z,7.75
2022-08-16T00:49:44.519Z,9.27
2022-08-16T00:52:35.180Z,10.15
2022-08-16T00:55:26.645Z,9.77
2022-08-16T00:58:35.032Z,7.75
2022-08-16T01:01:26.901Z,10.25
2022-08-16T01:04:29.325Z,8.30
2022-08-16T01:07:20.400Z,7.25
2022-08-16T01:10:16.516Z,9.27
2022-08-16T01:13:08.046Z,9.30
2022-08-16T01:16:02.956Z,10.57
2022-08-16T01:18:57.087Z,8.27
2022-08-16T01:21:49.681Z,8.02
2022-08-16T01:24:52.921Z,9.68
2022-08-16T01:27:47.113Z,10.00
2022-08-16T01:30:40.022Z,8.32
2022-08-16T01:33:39.565Z,10.40
2022-08-16T01:36:35.034Z,9.23
2022-08-16T01:39:24.384Z,10.38
2022-08-16T01:42:16.249Z,9.98
2022-08-16T01:45:10.645Z,9.23
2022-08-16T01:48:01.114Z,6.85
2022-08-16T01:51:09.204Z,11.68
2022-08-16T01:54:01.178Z,7.78
2022-08-16T01:56:52.364Z,8.52
2022-08-16T01:59:45.090Z,7.00
2022-08-16T02:02:35.694Z,7.50
2022-08-16T02:05:32.154Z,7.38
2022-08-16T02:08:33.768Z,7.97
2022-08-16T02:11:24.043Z,7.05
2022-08-16T02:14:18.236Z,8.40
2022-08-16T02:17:11.407Z,12.63
2022-08-16T02:20:00.846Z,8.85
2022-08-16T02:22:50.924Z,9.00
2022-08-16T02:25:52.213Z,8.50
2022-08-16T02:28:46.975Z,9.55
2022-08-16T02:32:02.803Z,9.88
2022-08-16T02:34:45.262Z,9.60
2022-08-16T02:37:51.247Z,9.05
2022-08-16T02:40:42.551Z,12.38
2022-08-16T02:43:33.116Z,8.77
2022-08-16T02:46:20.580Z,10.20
2022-08-16T02:49:17.514Z,10.02
2022-08-16T02:52:10.288Z,9.15
2022-08-16T02:55:05.591Z,8.48
2022-08-16T02:57:54.391Z,8.80
2022-08-16T03:00:45.413Z,9.20
2022-08-16T03:04:39.223Z,8.23
2022-08-16T03:06:45.456Z,8.27
2022-08-16T03:09:33.715Z,7.85
2022-08-16T03:12:20.634Z,11.50
2022-08-16T03:15:18.455Z,9.07
2022-08-16T03:18:12.628Z,9.23
2022-08-16T03:21:07.241Z,9.32
2022-08-16T03:23:57.833Z,6.90
2022-08-16T03:26:47.059Z,7.53
2022-08-16T03:29:38.615Z,8.27
2022-08-16T03:32:30.502Z,8.65
2022-08-16T03:35:19.458Z,7.72
2022-08-16T03:38:32.391Z,9.52
2022-08-16T03:41:29.181Z,7.50
2022-08-16T03:44:43.349Z,7.43
2022-08-16T03:47:27.562Z,8.07
2022-08-16T03:50:25.550Z,8.38
2022-08-16T03:53:13.921Z,7.57
2022-08-16T03:56:02.515Z,10.40
2022-08-16T03:58:51.085Z,11.57
2022-08-16T04:01:41.121Z,8.65
2022-08-16T04:04:33.268Z,8.85
2022-08-16T04:07:20.823Z,9.65
2022-08-16T04:10:37.239Z,8.55
2022-08-16T04:13:59.926Z,10.55
2022-08-16T04:16:28.193Z,7.93
2022-08-16T04:19:16.970Z,9.50
2022-08-16T04:22:08.476Z,8.35
2022-08-16T04:24:59.493Z,9.00
2022-08-16T04:27:54.151Z,10.02
2022-08-16T04:30:43.455Z,10.23
2022-08-16T04:33:35.536Z,9.77
2022-08-16T04:36:24.416Z,10.32
2022-08-16T04:39:11.847Z,8.23
2022-08-16T04:42:11.293Z,9.30
2022-08-16T04:45:01.796Z,8.75
2022-08-16T04:47:56.176Z,8.57
2022-08-16T04:50:44.382Z,9.25
2022-08-16T04:53:33.252Z,11.18
2022-08-16T04:56:21.049Z,9.30
2022-08-16T04:59:09.054Z,7.00
2022-08-16T05:01:58.829Z,7.43
2022-08-16T05:04:46.667Z,9.90
2022-08-16T05:07:33.766Z,10.43
2022-08-16T05:10:23.062Z,7.57
2022-08-16T05:13:15.631Z,10.73
2022-08-16T05:16:03.753Z,10.77
2022-08-16T05:18:53.819Z,9.50
2022-08-16T05:21:44.055Z,9.10
2022-08-16T05:24:33.266Z,11.07
2022-08-16T05:27:23.463Z,9.73
2022-08-16T05:30:36.738Z,8.40
2022-08-16T05:33:22.051Z,9.15
2022-08-16T05:36:14.319Z,9.15
2022-08-16T05:39:02.456Z,10.57
2022-08-16T05:41:51.749Z,6.75
2022-08-16T05:44:40.644Z,8.95
2022-08-16T05:47:30.250Z,11.88
2022-08-16T05:50:19.128Z,11.90
2022-08-16T05:53:06.524Z,8.50
2022-08-16T05:55:54.203Z,12.10
2022-08-16T05:58:41.403Z,9.55
2022-08-16T06:01:29.939Z,11.10
2022-08-16T06:04:34.804Z,10.00
2022-08-16T06:07:26.016Z,8.05
2022-08-16T06:10:14.278Z,13.50
2022-08-16T06:13:20.163Z,9.30
2022-08-16T06:16:08.095Z,9.48
2022-08-16T06:18:56.996Z,10.75
2022-08-16T06:21:44.270Z,11.15
2022-08-16T06:24:55.042Z,7.45
2022-08-16T06:27:40.812Z,7.85
2022-08-16T06:30:28.980Z,9.07
2022-08-16T06:33:19.601Z,9.90
2022-08-16T06:36:11.695Z,9.93
2022-08-16T06:39:02.110Z,9.30
2022-08-16T06:41:53.560Z,11.07
2022-08-16T06:44:41.186Z,10.00
2022-08-16T06:47:53.590Z,8.27
2022-08-16T06:50:36.947Z,9.35
2022-08-16T06:53:27.280Z,10.15
2022-08-16T06:56:23.151Z,10.45
2022-08-16T06:59:11.262Z,10.85
2022-08-16T07:01:59.670Z,9.98
2022-08-16T07:04:47.332Z,10.82
2022-08-16T07:07:41.787Z,10.93
2022-08-16T07:10:31.843Z,10.88
2022-08-16T07:13:43.776Z,8.68
2022-08-16T07:16:28.768Z,9.13
2022-08-16T07:19:17.486Z,9.40
2022-08-16T07:22:06.847Z,12.00
2022-08-16T07:25:14.747Z,11.55
2022-08-16T07:28:06.069Z,10.35
2022-08-16T07:30:59.959Z,12.20
2022-08-16T07:33:51.259Z,10.23
2022-08-16T07:36:41.540Z,10.27
2022-08-16T07:39:33.944Z,13.88
2022-08-16T07:42:28.402Z,11.82
2022-08-16T07:45:24.292Z,9.93
2022-08-16T07:48:12.694Z,9.10
2022-08-16T07:51:01.664Z,10.43
2022-08-16T07:54:02.548Z,12.45
2022-08-16T07:56:58.147Z,12.50
2022-08-16T07:59:46.582Z,10.15
2022-08-16T08:02:35.174Z,10.43
2022-08-16T08:05:29.718Z,13.05
2022-08-16T08:08:50.933Z,9.57
2022-08-16T08:11:30.608Z,13.48
2022-08-16T08:14:29.989Z,10.68
2022-08-16T08:17:17.906Z,13.27
2022-08-16T08:20:08.719Z,9.57
2022-08-16T08:23:01.016Z,7.88
2022-08-16T08:25:53.854Z,12.05
2022-08-16T08:28:42.894Z,8.23
2022-08-16T08:31:36.543Z,9.23
2022-08-16T08:34:25.048Z,10.70
2022-08-16T08:37:14.085Z,8.82
2022-08-16T08:40:03.537Z,10.65
2022-08-16T08:42:57.398Z,9.95
2022-08-16T08:45:53.726Z,9.68
2022-08-16T08:48:45.374Z,11.85
2022-08-16T08:51:48.876Z,13.55
2022-08-16T08:54:38.203Z,8.43
2022-08-16T08:57:25.930Z,11.15
2022-08-16T09:00:14.276Z,9.10
2022-08-16T09:03:10.367Z,10.25
2022-08-16T09:05:57.672Z,10.07
2022-08-16T09:08:47.475Z,9.40
2022-08-16T09:11:41.042Z,11.25
2022-08-16T09:14:31.072Z,10.18
2022-08-16T09:17:45.508Z,8.02
2022-08-16T09:20:27.155Z,9.25
2022-08-16T09:23:15.213Z,10.82
2022-08-16T09:26:44.723Z,9.45
2022-08-16T09:29:23.991Z,10.13
2022-08-16T09:32:28.938Z,10.32
2022-08-16T09:35:18.711Z,8.55
2022-08-16T09:38:08.461Z,10.48
2022-08-16T09:40:58.774Z,8.68
2022-08-16T09:43:58.807Z,9.23
2022-08-16T09:46:50.048Z,10.75
2022-08-16T09:49:40.816Z,11.32
2022-08-16T09:52:30.671Z,8.70
2022-08-16T09:55:20.759Z,14.82
2022-08-16T09:58:40.755Z,9.20
2022-08-16T10:01:20.072Z,10.38
2022-08-16T10:04:29.359Z,8.73
2022-08-16T10:07:16.706Z,9.82
2022-08-16T10:10:08.529Z,9.35
2022-08-16T10:13:14.408Z,10.65
2022-08-16T10:16:04.174Z,10.52
2022-08-16T10:19:00.398Z,8.15
2022-08-16T10:21:56.274Z,8.68
2022-08-16T10:24:55.753Z,11.32
2022-08-16T10:27:53.343Z,9.65
2022-08-16T10:30:44.624Z,9.75
2022-08-16T10:33:33.955Z,10.63
2022-08-16T10:36:38.609Z,8.88
2022-08-16T10:39:41.107Z,9.43
2022-08-16T10:42:30.479Z,12.13
2022-08-16T10:45:18.464Z,9.18
2022-08-16T10:48:27.123Z,8.20
2022-08-16T10:51:14.743Z,8.40
2022-08-16T10:54:02.692Z,8.20
2022-08-16T10:56:57.108Z,7.35
2022-08-16T10:59:51.819Z,8.50
2022-08-16T11:03:37.599Z,9.50
2022-08-16T11:06:06.150Z,8.48
2022-08-16T11:12:14.024Z,7.07
2022-08-16T11:15:18.032Z,9.50
2022-08-16T11:19:03.644Z,8.98
2022-08-16T11:21:28.834Z,9.73
2022-08-16T11:27:35.405Z,8.40
2022-08-16T11:30:38.966Z,8.52
2022-08-16T11:33:52.046Z,8.90
2022-08-16T11:36:34.173Z,9.93
2022-08-16T11:39:21.622Z,7.78
2022-08-16T11:42:23.210Z,11.23
2022-08-16T11:45:18.371Z,8.02
2022-08-16T11:48:06.955Z,7.97
2022-08-16T11:50:55.050Z,9.23
2022-08-16T11:53:42.427Z,9.35
2022-08-16T11:56:51.557Z,8.85
2022-08-16T11:59:39.842Z,7.93
2022-08-16T12:02:31.851Z,10.35
2022-08-16T12:05:21.500Z,9.38
2022-08-16T12:08:12.545Z,11.05
2022-08-16T12:11:02.408Z,9.77
2022-08-16T12:13:50.643Z,10.93
2022-08-16T12:16:38.935Z,8.40
2022-08-16T12:19:37.961Z,8.43
2022-08-16T12:22:26.083Z,7.57
2022-08-16T12:25:15.231Z,9.30
2022-08-16T12:28:03.435Z,11.40
2022-08-16T12:30:51.580Z,9.45
2022-08-16T12:33:44.915Z,9.77
2022-08-16T12:36:35.222Z,8.57
2022-08-16T12:39:22.760Z,9.80
2022-08-16T12:42:10.482Z,9.27
2022-08-16T12:44:57.622Z,8.88
2022-08-16T12:48:31.696Z,9.73
2022-08-16T12:51:19.743Z,13.00
2022-08-16T12:54:09.953Z,9.23
2022-08-16T12:56:57.695Z,9.27
2022-08-16T12:59:45.520Z,11.75
2022-08-16T13:02:36.586Z,8.20
2022-08-16T13:05:24.119Z,9.32
2022-08-16T13:08:20.367Z,9.23
2022-08-16T13:11:09.656Z,11.35
2022-08-16T13:13:58.565Z,11.05
2022-08-16T13:16:45.925Z,9.52
2022-08-16T13:19:56.326Z,11.40
2022-08-16T13:22:43.222Z,9.60
2022-08-16T13:25:33.592Z,9.88
2022-08-16T13:28:23.128Z,12.75
2022-08-16T13:31:11.891Z,9.75
2022-08-16T13:34:09.369Z,11.45
2022-08-16T13:36:56.783Z,10.10
2022-08-16T13:39:44.688Z,11.77
2022-08-16T13:42:33.872Z,12.40
2022-08-16T13:45:45.134Z,12.63
2022-08-16T13:48:43.940Z,11.38
2022-08-16T13:51:33.295Z,8.77
2022-08-16T13:54:22.002Z,10.93
2022-08-16T13:57:11.530Z,11.00
2022-08-16T13:59:59.313Z,12.75
2022-08-16T14:02:48.951Z,13.57
2022-08-16T14:05:36.142Z,9.25
2022-08-16T14:08:27.130Z,9.55
2022-08-16T14:11:16.286Z,10.20
2022-08-16T14:14:05.686Z,10.85
2022-08-16T14:16:53.758Z,11.45
2022-08-16T14:19:45.052Z,9.13
2022-08-16T14:22:39.975Z,9.38
2022-08-16T14:25:30.216Z,11.27
2022-08-16T14:28:17.887Z,8.93
2022-08-16T14:31:05.289Z,13.77
2022-08-16T14:33:52.749Z,8.90
2022-08-16T14:36:42.620Z,9.00
2022-08-16T14:39:30.830Z,8.23
2022-08-16T14:42:19.632Z,9.18
2022-08-16T14:45:09.163Z,7.90
2022-08-16T14:47:56.742Z,10.20
2022-08-16T14:50:44.307Z,9.95
2022-08-16T14:53:33.648Z,10.77
2022-08-16T14:56:38.700Z,10.73
2022-08-16T14:59:28.048Z,11.05
2022-08-16T15:02:34.616Z,8.65
2022-08-16T15:05:23.601Z,12.70
2022-08-16T15:08:11.403Z,10.38
2022-08-16T15:11:00.273Z,8.68
2022-08-16T15:13:48.322Z,10.13
2022-08-16T15:16:39.561Z,7.68
2022-08-16T15:19:33.423Z,8.85
2022-08-16T15:22:24.904Z,11.23
2022-08-16T15:25:15.019Z,10.88
2022-08-16T15:28:06.742Z,10.75
2022-08-16T15:31:13.682Z,9.52
2022-08-16T15:34:00.537Z,11.55
2022-08-16T15:36:49.216Z,9.82
2022-08-16T15:39:40.276Z,12.05
2022-08-16T15:42:28.865Z,11.07
2022-08-16T15:45:39.206Z,7.88
2022-08-16T15:48:31.674Z,7.78
2022-08-16T15:51:18.983Z,12.32
2022-08-16T15:54:28.928Z,9.02
2022-08-16T15:57:14.355Z,10.57
2022-08-16T16:00:14.741Z,9.48
2022-08-16T16:03:08.752Z,11.35
2022-08-16T16:05:59.375Z,11.68
2022-08-16T16:08:47.044Z,9.85
2022-08-16T16:11:33.936Z,9.52
2022-08-16T16:14:24.855Z,9.27
2022-08-16T16:17:17.319Z,8.25
2022-08-16T16:20:14.865Z,8.70
2022-08-16T16:23:03.588Z,11.82
2022-08-16T16:25:50.469Z,8.73
2022-08-16T16:29:05.105Z,11.38
2022-08-16T16:31:57.182Z,8.82
2022-08-16T16:34:46.423Z,8.80
2022-08-16T16:37:35.541Z,10.77
2022-08-16T16:40:32.399Z,9.10
2022-08-16T16:43:20.743Z,9.43
2022-08-16T16:46:40.154Z,10.75
2022-08-16T16:49:27.324Z,10.23
2022-08-16T16:52:44.304Z,9.70
2022-08-16T16:55:25.377Z,8.55
2022-08-16T16:58:36.416Z,8.90
2022-08-16T17:01:50.163Z,12.30
2022-08-16T17:04:32.968Z,14.25
2022-08-16T17:07:24.021Z,11.20
2022-08-16T17:10:13.653Z,9.07
2022-08-16T17:13:23.753Z,10.73
2022-08-16T17:16:18.376Z,9.13
2022-08-16T17:19:16.283Z,11.07
2022-08-16T17:22:06.059Z,12.05
2022-08-16T17:25:02.592Z,10.18
2022-08-16T17:27:55.798Z,10.43
2022-08-16T17:30:47.990Z,11.18
2022-08-16T17:33:37.326Z,8.45
2022-08-16T17:36:52.813Z,10.05
2022-08-16T17:39:56.833Z,10.82
2022-08-16T17:42:52.944Z,11.45
2022-08-16T17:45:41.178Z,11.60
2022-08-16T17:48:35.083Z,9.98
2022-08-16T17:51:22.720Z,9.65
2022-08-16T17:54:30.149Z,10.57
2022-08-16T17:57:17.136Z,9.93
2022-08-16T18:00:05.277Z,11.23
2022-08-16T18:02:53.397Z,10.20
2022-08-16T18:05:44.710Z,9.85
2022-08-16T18:08:31.956Z,10.18
2022-08-16T18:11:25.583Z,10.00
2022-08-16T18:14:15.094Z,9.13
2022-08-16T18:17:02.673Z,10.55
2022-08-16T18:19:49.659Z,11.20
2022-08-16T18:22:37.220Z,9.73
2022-08-16T18:25:24.504Z,11.85
2022-08-16T18:28:11.844Z,12.43
2022-08-16T18:31:01.082Z,11.80
2022-08-16T18:33:54.677Z,11.35
2022-08-16T18:36:43.379Z,9.85
2022-08-16T18:39:32.692Z,12.93
2022-08-16T18:42:20.977Z,10.77
2022-08-16T18:45:11.899Z,11.25
2022-08-16T18:47:59.334Z,9.68
2022-08-16T18:50:58.894Z,8.95
2022-08-16T18:53:52.434Z,11.98
2022-08-16T18:56:56.955Z,10.48
2022-08-16T18:59:45.354Z,8.95
2022-08-16T19:02:56.799Z,9.70
2022-08-16T19:05:41.342Z,9.45
2022-08-16T19:08:28.972Z,13.23
2022-08-16T19:11:18.955Z,12.38
2022-08-16T19:14:07.233Z,12.93
2022-08-16T19:16:54.485Z,12.07
2022-08-16T19:19:41.831Z,11.05
2022-08-16T19:22:52.060Z,10.25
2022-08-16T19:25:47.130Z,14.18
2022-08-16T19:28:52.046Z,11.45
2022-08-16T19:31:46.304Z,9.02
2022-08-16T19:34:33.635Z,9.85
2022-08-16T19:37:22.319Z,10.60
2022-08-16T19:40:25.592Z,10.65
2022-08-16T19:43:17.668Z,9.85
2022-08-16T19:46:05.179Z,10.90
2022-08-16T19:48:54.196Z,12.05
2022-08-16T19:51:41.637Z,11.48
2022-08-16T19:54:28.860Z,10.32
2022-08-16T19:57:27.255Z,9.80
2022-08-16T20:00:15.545Z,11.82
2022-08-16T20:03:03.118Z,9.95
2022-08-16T20:05:53.521Z,10.77
2022-08-16T20:08:40.738Z,10.20
2022-08-16T20:11:28.035Z,9.88
2022-08-16T20:14:24.511Z,10.50
2022-08-16T20:17:14.362Z,11.88
2022-08-16T20:20:01.709Z,9.00
2022-08-16T20:22:53.754Z,9.50
2022-08-16T20:25:42.074Z,12.38
2022-08-16T20:28:52.134Z,9.38
2022-08-16T20:31:41.454Z,17.33
2022-08-16T20:34:28.844Z,15.27
2022-08-16T20:37:16.702Z,15.48
2022-08-16T20:40:34.028Z,18.92
2022-08-16T20:43:15.124Z,15.32
2022-08-16T20:46:02.861Z,18.40
2022-08-16T20:48:50.659Z,17.27
2022-08-16T20:51:49.937Z,14.07
2022-08-16T20:54:39.050Z,16.40
2022-08-16T20:57:27.736Z,15.40
2022-08-16T21:00:15.928Z,15.70
2022-08-16T21:03:07.198Z,15.27
2022-08-16T21:05:57.246Z,17.35
2022-08-16T21:08:53.499Z,17.65
2022-08-16T21:11:41.403Z,15.20
2022-08-16T21:14:33.858Z,17.02
2022-08-16T21:17:21.107Z,14.52
2022-08-16T21:20:08.826Z,16.20
2022-08-16T21:22:58.050Z,17.75
2022-08-16T21:25:49.841Z,17.15
2022-08-16T21:28:46.247Z,16.73
2022-08-16T21:31:35.013Z,17.15
2022-08-16T21:34:21.998Z,16.55
2022-08-16T21:37:09.571Z,14.48
2022-08-16T21:39:56.858Z,15.73
2022-08-16T21:42:45.432Z,15.65
2022-08-16T21:45:32.787Z,21.88
2022-08-16T21:48:35.002Z,17.05
2022-08-16T21:51:23.291Z,14.80
2022-08-16T21:54:10.628Z,17.30
2022-08-16T21:56:58.014Z,15.23
2022-08-16T21:59:44.988Z,17.17
2022-08-16T22:02:35.564Z,16.10
2022-08-16T22:08:16.691Z,15.13
2022-08-16T22:11:08.286Z,15.75
2022-08-16T22:13:57.819Z,17.00
2022-08-16T22:16:47.199Z,16.23
2022-08-16T22:19:34.341Z,17.17
2022-08-16T22:22:21.273Z,16.10
2022-08-16T22:25:10.053Z,16.38
2022-08-16T22:27:57.627Z,14.77
2022-08-16T22:30:44.864Z,15.65
2022-08-16T22:33:32.107Z,18.38
2022-08-16T22:36:19.905Z,14.15
2022-08-16T22:39:08.043Z,15.70
2022-08-16T22:41:57.018Z,12.48
2022-08-16T22:44:46.369Z,18.65
2022-08-16T22:47:34.104Z,16.67
2022-08-16T22:50:21.815Z,17.35
2022-08-16T22:53:09.560Z,15.27
2022-08-16T22:55:57.282Z,14.82
2022-08-16T22:58:45.911Z,14.35
2022-08-16T23:01:33.237Z,17.73
2022-08-16T23:04:20.260Z,13.40
2022-08-16T23:07:07.080Z,14.98
2022-08-16T23:09:55.312Z,15.70
2022-08-16T23:12:47.918Z,17.27
2022-08-16T23:15:42.128Z,14.15
2022-08-16T23:21:16.976Z,12.98
2022-08-16T23:24:04.250Z,13.70
2022-08-16T23:26:51.468Z,14.88
2022-08-16T23:29:38.974Z,12.68
2022-08-16T23:32:27.816Z,14.10
2022-08-16T23:35:16.057Z,15.02
2022-08-16T23:38:05.724Z,19.42
2022-08-16T23:40:53.507Z,16.23
2022-08-16T23:43:43.517Z,19.15
2022-08-16T23:46:31.907Z,19.38
2022-08-16T23:49:59.216Z,20.10
2022-08-16T23:52:45.242Z,16.30
2022-08-16T23:55:38.347Z,14.55
2022-08-16T23:58:26.390Z,13.35
